createdAt,value
2019-05-12T00:00:39.210Z,99911.70
2019-05-12T00:03:08.866Z,99915.55
2019-05-12T00:05:38.609Z,99920.09
2019-05-12T00:08:09.670Z,99921.41
2019-05-12T00:10:39.191Z,99921.34
2019-05-12T00:13:10.072Z,99919.44
2019-05-12T00:15:40.016Z,99922.20
2019-05-12T00:18:10.812Z,99926.77
2019-05-12T00:20:40.087Z,99935.30
2019-05-12T00:23:23.882Z,99936.27
2019-05-12T00:25:43.309Z,99936.21
2019-05-12T00:28:18.803Z,99943.81
2019-05-12T00:30:50.455Z,99939.81
2019-05-12T00:33:19.663Z,99938.69
2019-05-12T00:35:48.862Z,99945.55
2019-05-12T00:38:19.568Z,99937.18
2019-05-12T00:40:49.875Z,99940.61
2019-05-12T00:43:19.343Z,99936.08
2019-05-12T00:45:49.209Z,99940.61
2019-05-12T00:48:18.625Z,99937.92
2019-05-12T00:50:51.248Z,99943.58
2019-05-12T00:53:20.632Z,99961.35
2019-05-12T00:55:51.100Z,99958.72
2019-05-12T00:58:20.578Z,99970.72
2019-05-12T01:00:49.757Z,99970.27
2019-05-12T01:03:20.209Z,99975.52
2019-05-12T01:05:49.641Z,99984.70
2019-05-12T01:08:20.512Z,99978.61
2019-05-12T01:10:49.945Z,99979.27
2019-05-12T01:13:20.732Z,99991.90
2019-05-12T01:15:50.672Z,99993.72
2019-05-12T01:18:19.876Z,100000.05
2019-05-12T01:20:50.515Z,100000.03
2019-05-12T01:23:23.382Z,99992.42
2019-05-12T01:25:52.591Z,100010.70
2019-05-12T01:28:24.339Z,100009.63
2019-05-12T01:30:58.215Z,100017.22
2019-05-12T01:33:29.397Z,100022.22
2019-05-12T01:35:59.373Z,100016.31
2019-05-12T01:38:28.884Z,100021.16
2019-05-12T01:40:58.880Z,100026.41
2019-05-12T01:43:29.126Z,100029.40
2019-05-12T01:45:58.952Z,100039.09
2019-05-12T01:48:30.223Z,100034.10
2019-05-12T01:51:02.179Z,100042.78
2019-05-12T01:53:31.681Z,100042.44
2019-05-12T01:56:01.638Z,100050.91
2019-05-12T01:58:32.220Z,100056.27
2019-05-12T02:01:03.150Z,100063.52
2019-05-12T02:03:32.363Z,100066.84
2019-05-12T02:06:03.102Z,100066.16
2019-05-12T02:08:38.598Z,100068.62
2019-05-12T02:11:25.984Z,100074.31
2019-05-12T02:13:57.900Z,100072.51
2019-05-12T02:16:28.183Z,100078.44
2019-05-12T02:18:59.492Z,100080.11
2019-05-12T02:21:28.697Z,100085.58
2019-05-12T02:23:58.471Z,100090.38
2019-05-12T02:26:29.094Z,100096.98
2019-05-12T02:28:58.679Z,100102.80
2019-05-12T02:31:29.862Z,100112.27
2019-05-12T02:33:59.228Z,100113.53
2019-05-12T02:36:28.978Z,100118.33
2019-05-12T02:39:00.302Z,100117.20
2019-05-12T02:41:34.535Z,100126.15
2019-05-12T02:44:05.331Z,100135.97
2019-05-12T02:46:35.791Z,100130.64
2019-05-12T02:49:06.447Z,100134.89
2019-05-12T02:51:40.415Z,100140.56
2019-05-12T02:54:14.354Z,100147.48
2019-05-12T02:56:47.951Z,100153.59
2019-05-12T02:59:21.564Z,100153.27
2019-05-12T03:01:56.117Z,100156.66
2019-05-12T03:04:27.589Z,100152.15
2019-05-12T03:07:06.462Z,100164.91
2019-05-12T03:09:35.683Z,100153.05
2019-05-12T03:12:06.347Z,100154.41
2019-05-12T03:14:40.568Z,100156.76
2019-05-12T03:17:09.266Z,100150.95
2019-05-12T03:19:39.217Z,100158.82
2019-05-12T03:22:08.670Z,100157.59
2019-05-12T03:24:38.101Z,100159.20
2019-05-12T03:27:14.606Z,100157.52
2019-05-12T03:29:44.962Z,100160.18
2019-05-12T03:32:17.721Z,100158.77
2019-05-12T03:34:47.758Z,100163.87
2019-05-12T03:37:18.610Z,100168.59
2019-05-12T03:39:49.306Z,100175.28
2019-05-12T03:42:19.974Z,100183.90
2019-05-12T03:44:49.982Z,100194.39
2019-05-12T03:47:25.144Z,100206.06
2019-05-12T03:49:56.822Z,100213.52
2019-05-12T03:52:27.817Z,100221.31
2019-05-12T03:54:57.796Z,100229.59
2019-05-12T03:57:28.385Z,100240.75
2019-05-12T03:59:57.826Z,100242.77
2019-05-12T04:02:27.607Z,100246.25
2019-05-12T04:04:57.076Z,100252.28
2019-05-12T04:07:28.083Z,100248.05
2019-05-12T04:09:58.270Z,100253.11
2019-05-12T04:12:27.855Z,100270.41
2019-05-12T04:14:58.125Z,100265.17
2019-05-12T04:17:28.143Z,100274.24
2019-05-12T04:19:57.878Z,100280.76
2019-05-12T04:22:28.476Z,100292.34
2019-05-12T04:25:05.692Z,100305.49
2019-05-12T04:27:35.441Z,100310.47
2019-05-12T04:30:06.156Z,100318.08
2019-05-12T04:32:45.126Z,100324.94
2019-05-12T04:35:15.371Z,100325.61
2019-05-12T04:37:45.154Z,100319.72
2019-05-12T04:40:15.057Z,100322.75
2019-05-12T04:42:45.290Z,100330.02
2019-05-12T04:45:15.935Z,100327.92
2019-05-12T04:47:47.772Z,100332.97
2019-05-12T04:50:17.660Z,100335.67
2019-05-12T04:52:48.202Z,100339.49
2019-05-12T04:55:18.530Z,100339.00
2019-05-12T04:57:49.445Z,100340.16
2019-05-12T05:00:19.553Z,100340.68
2019-05-12T05:02:48.998Z,100338.75
2019-05-12T05:05:20.015Z,100343.31
2019-05-12T05:07:49.503Z,100353.98
2019-05-12T05:10:18.983Z,100356.03
2019-05-12T05:12:49.236Z,100355.37
2019-05-12T05:15:18.676Z,100359.23
2019-05-12T05:17:47.872Z,100361.73
2019-05-12T05:20:17.256Z,100364.81
2019-05-12T05:22:46.417Z,100374.53
2019-05-12T05:25:15.898Z,100387.14
2019-05-12T05:27:46.108Z,100387.84
2019-05-12T05:30:15.660Z,100390.98
2019-05-12T05:32:44.828Z,100394.93
2019-05-12T05:35:14.131Z,100394.44
2019-05-12T05:37:44.316Z,100404.70
2019-05-12T05:40:19.796Z,100399.03
2019-05-12T05:42:51.531Z,100409.86
2019-05-12T05:45:24.214Z,100431.30
2019-05-12T05:47:54.597Z,100427.96
2019-05-12T05:50:29.345Z,100431.09
2019-05-12T05:52:56.614Z,100425.33
2019-05-12T05:55:26.168Z,100433.50
2019-05-12T05:57:59.807Z,100432.31
2019-05-12T06:00:26.832Z,100433.05
2019-05-12T06:02:57.158Z,100432.23
2019-05-12T06:05:30.799Z,100443.56
2019-05-12T06:07:57.558Z,100442.06
2019-05-12T06:10:35.221Z,100446.32
2019-05-12T06:12:58.820Z,100449.05
2019-05-12T06:15:35.725Z,100448.69
2019-05-12T06:18:04.892Z,100449.91
2019-05-12T06:20:37.928Z,100454.41
2019-05-12T06:23:06.586Z,100448.32
2019-05-12T06:25:50.964Z,100455.98
2019-05-12T06:28:09.419Z,100450.59
2019-05-12T06:30:44.484Z,100450.50
2019-05-12T06:33:10.916Z,100453.91
2019-05-12T06:35:44.621Z,100458.57
2019-05-12T06:38:15.488Z,100462.84
2019-05-12T06:40:45.701Z,100470.80
2019-05-12T06:43:16.337Z,100460.23
2019-05-12T06:45:45.873Z,100464.09
2019-05-12T06:48:19.241Z,100461.48
2019-05-12T06:50:53.395Z,100467.45
2019-05-12T06:53:26.538Z,100475.13
2019-05-12T06:55:54.148Z,100469.83
2019-05-12T06:58:32.143Z,100474.07
2019-05-12T07:01:02.413Z,100465.92
2019-05-12T07:03:33.998Z,100465.16
2019-05-12T07:06:04.090Z,100459.27
2019-05-12T07:08:38.271Z,100458.80
2019-05-12T07:11:06.065Z,100467.02
2019-05-12T07:13:35.696Z,100467.67
2019-05-12T07:16:22.992Z,100464.68
2019-05-12T07:18:50.266Z,100471.73
2019-05-12T07:21:21.173Z,100479.62
2019-05-12T07:23:53.500Z,100471.33
2019-05-12T07:26:24.167Z,100466.66
2019-05-12T07:28:54.250Z,100463.74
2019-05-12T07:31:25.516Z,100467.58
2019-05-12T07:34:20.411Z,100470.44
2019-05-12T07:36:53.794Z,100469.93
2019-05-12T07:39:37.015Z,100476.58
2019-05-12T07:42:07.189Z,100477.53
2019-05-12T07:44:41.145Z,100481.02
2019-05-12T07:47:29.323Z,100474.28
2019-05-12T07:49:57.397Z,100468.98
2019-05-12T07:52:28.490Z,100475.18
2019-05-12T07:54:59.343Z,100475.25
2019-05-12T07:57:28.857Z,100478.83
2019-05-12T08:00:00.688Z,100476.64
2019-05-12T08:02:35.697Z,100484.57
2019-05-12T08:05:05.413Z,100486.28
2019-05-12T08:07:34.947Z,100488.07
2019-05-12T08:10:07.313Z,100487.34
2019-05-12T08:12:38.701Z,100481.65
2019-05-12T08:15:10.594Z,100480.67
2019-05-12T08:17:44.064Z,100475.02
2019-05-12T08:20:17.699Z,100482.48
2019-05-12T08:22:48.479Z,100482.08
2019-05-12T08:25:27.066Z,100488.28
2019-05-12T08:28:04.185Z,100487.86
2019-05-12T08:30:33.634Z,100489.56
2019-05-12T08:33:09.458Z,100494.09
2019-05-12T08:35:38.544Z,100493.32
2019-05-12T08:38:09.234Z,100498.81
2019-05-12T08:40:48.788Z,100491.44
2019-05-12T08:43:14.878Z,100506.48
2019-05-12T08:45:46.867Z,100508.05
2019-05-12T08:48:21.520Z,100513.21
2019-05-12T08:50:48.392Z,100511.42
2019-05-12T08:53:27.317Z,100511.26
2019-05-12T08:56:12.678Z,100510.20
2019-05-12T08:58:47.338Z,100507.84
2019-05-12T09:01:06.593Z,100510.52
2019-05-12T09:03:39.152Z,100504.94
2019-05-12T09:06:17.856Z,100506.38
2019-05-12T09:08:45.086Z,100510.98
2019-05-12T09:11:14.226Z,100508.15
2019-05-12T09:14:00.563Z,100507.07
2019-05-12T09:16:27.685Z,100509.83
2019-05-12T09:18:56.914Z,100506.44
2019-05-12T09:21:34.128Z,100517.12
2019-05-12T09:24:13.680Z,100516.38
2019-05-12T09:26:59.119Z,100512.88
2019-05-12T09:29:27.568Z,100512.92
2019-05-12T09:31:59.271Z,100513.32
2019-05-12T09:34:29.310Z,100509.63
2019-05-12T09:37:00.986Z,100510.01
2019-05-12T09:39:34.173Z,100521.36
2019-05-12T09:42:03.785Z,100520.73
2019-05-12T09:44:35.813Z,100513.16
2019-05-12T09:47:12.727Z,100516.16
2019-05-12T09:49:44.422Z,100517.98
2019-05-12T09:52:22.651Z,100523.39
2019-05-12T09:54:48.413Z,100517.17
2019-05-12T09:57:17.627Z,100519.23
2019-05-12T09:59:55.493Z,100512.61
2019-05-12T10:02:20.978Z,100514.25
2019-05-12T10:04:56.487Z,100520.02
2019-05-12T10:07:22.125Z,100518.06
2019-05-12T10:09:55.022Z,100510.25
2019-05-12T10:12:24.297Z,100509.09
2019-05-12T10:14:55.257Z,100508.83
2019-05-12T10:17:26.254Z,100508.30
2019-05-12T10:19:58.258Z,100505.51
2019-05-12T10:22:40.212Z,100510.63
2019-05-12T10:25:11.325Z,100507.97
2019-05-12T10:27:44.093Z,100520.88
2019-05-12T10:30:18.627Z,100515.64
2019-05-12T10:32:53.315Z,100512.14
2019-05-12T10:35:26.554Z,100509.66
2019-05-12T10:38:00.214Z,100514.71
2019-05-12T10:40:33.875Z,100509.81
2019-05-12T10:43:05.002Z,100514.23
2019-05-12T10:45:35.631Z,100519.89
2019-05-12T10:48:05.074Z,100515.73
2019-05-12T10:50:34.643Z,100511.16
2019-05-12T10:53:04.704Z,100511.91
2019-05-12T10:55:44.304Z,100510.39
2019-05-12T10:58:14.600Z,100510.03
2019-05-12T11:00:46.308Z,100518.33
2019-05-12T11:03:15.765Z,100505.92
2019-05-12T11:05:46.294Z,100499.69
2019-05-12T11:08:16.564Z,100503.55
2019-05-12T11:10:50.405Z,100513.58
2019-05-12T11:13:28.193Z,100517.31
2019-05-12T11:15:57.819Z,100506.53
2019-05-12T11:18:30.414Z,100503.88
2019-05-12T11:20:58.270Z,100507.58
2019-05-12T11:23:28.613Z,100508.18
2019-05-12T11:25:58.092Z,100506.55
2019-05-12T11:28:27.571Z,100519.11
2019-05-12T11:31:03.680Z,100507.59
2019-05-12T11:33:34.120Z,100508.09
2019-05-12T11:36:04.714Z,100508.94
2019-05-12T11:38:34.623Z,100514.91
2019-05-12T11:41:04.790Z,100511.60
2019-05-12T11:43:34.283Z,100512.08
2019-05-12T11:46:06.321Z,100509.69
2019-05-12T11:48:40.365Z,100511.48
2019-05-12T11:51:29.000Z,100514.77
2019-05-12T11:53:54.986Z,100514.08
2019-05-12T11:56:28.899Z,100511.41
2019-05-12T11:58:59.239Z,100514.55
2019-05-12T12:01:30.554Z,100509.12
2019-05-12T12:04:03.789Z,100521.63
2019-05-12T12:06:33.781Z,100530.38
2019-05-12T12:09:09.304Z,100520.61
2019-05-12T12:11:39.404Z,100515.05
2019-05-12T12:14:14.435Z,100522.31
2019-05-12T12:16:50.251Z,100525.00
2019-05-12T12:19:17.120Z,100521.49
2019-05-12T12:21:50.088Z,100531.69
2019-05-12T12:24:21.370Z,100537.70
2019-05-12T12:26:53.744Z,100547.20
2019-05-12T12:29:30.318Z,100544.53
2019-05-12T12:32:00.910Z,100539.25
2019-05-12T12:34:33.155Z,100538.97
2019-05-12T12:37:10.911Z,100544.41
2019-05-12T12:39:43.334Z,100547.03
2019-05-12T12:42:14.456Z,100544.44
2019-05-12T12:44:44.523Z,100554.42
2019-05-12T12:47:44.397Z,100559.47
2019-05-12T12:50:08.442Z,100560.27
2019-05-12T12:52:38.752Z,100555.92
2019-05-12T12:55:09.929Z,100551.02
2019-05-12T12:57:46.569Z,100554.88
2019-05-12T13:00:28.468Z,100548.82
2019-05-12T13:02:49.258Z,100561.88
2019-05-12T13:05:18.403Z,100551.88
2019-05-12T13:07:49.724Z,100552.88
2019-05-12T13:10:21.098Z,100549.70
2019-05-12T13:12:58.666Z,100544.38
2019-05-12T13:15:26.046Z,100545.20
2019-05-12T13:17:58.602Z,100546.00
2019-05-12T13:20:30.031Z,100546.31
2019-05-12T13:23:04.205Z,100553.81
2019-05-12T13:25:38.787Z,100563.55
2019-05-12T13:28:10.215Z,100561.31
2019-05-12T13:30:46.043Z,100551.77
2019-05-12T13:33:14.890Z,100557.48
2019-05-12T13:35:43.506Z,100561.33
2019-05-12T13:38:14.489Z,100558.52
2019-05-12T13:40:45.589Z,100553.45
2019-05-12T13:43:19.681Z,100550.17
2019-05-12T13:45:50.235Z,100552.21
2019-05-12T13:48:23.865Z,100547.99
2019-05-12T13:51:07.425Z,100553.22
2019-05-12T13:53:26.959Z,100550.91
2019-05-12T13:55:56.132Z,100552.20
2019-05-12T13:58:34.641Z,100556.11
2019-05-12T14:01:13.404Z,100559.72
2019-05-12T14:03:35.189Z,100554.09
2019-05-12T14:06:04.393Z,100557.56
2019-05-12T14:08:34.392Z,100551.97
2019-05-12T14:11:04.815Z,100555.08
2019-05-12T14:13:34.013Z,100566.19
2019-05-12T14:16:06.513Z,100560.73
2019-05-12T14:18:36.368Z,100558.70
2019-05-12T14:21:05.907Z,100559.56
2019-05-12T14:23:35.077Z,100567.30
2019-05-12T14:26:07.772Z,100569.86
2019-05-12T14:28:39.581Z,100562.01
2019-05-12T14:31:07.218Z,100559.59
2019-05-12T14:33:39.235Z,100568.75
2019-05-12T14:36:13.630Z,100570.22
2019-05-12T14:38:42.455Z,100568.63
2019-05-12T14:41:14.972Z,100567.44
2019-05-12T14:44:08.124Z,100578.91
2019-05-12T14:46:46.334Z,100582.12
2019-05-12T14:49:20.134Z,100589.75
2019-05-12T14:51:46.394Z,100585.09
2019-05-12T14:54:15.573Z,100585.24
2019-05-12T14:56:53.113Z,100577.23
2019-05-12T14:59:24.318Z,100579.77
2019-05-12T15:01:59.305Z,100577.44
2019-05-12T15:04:29.935Z,100577.73
2019-05-12T15:06:59.642Z,100579.69
2019-05-12T15:09:30.198Z,100587.22
2019-05-12T15:11:59.680Z,100583.78
2019-05-12T15:14:32.581Z,100592.78
2019-05-12T15:17:00.900Z,100600.70
2019-05-12T15:19:33.449Z,100588.32
2019-05-12T15:22:07.882Z,100591.02
2019-05-12T15:24:40.737Z,100591.91
2019-05-12T15:27:13.470Z,100586.32
2019-05-12T15:29:49.955Z,100585.06
2019-05-12T15:32:20.398Z,100598.30
2019-05-12T15:34:53.028Z,100605.60
2019-05-12T15:37:23.822Z,100603.41
2019-05-12T15:39:53.560Z,100603.48
2019-05-12T15:42:23.545Z,100613.86
2019-05-12T15:44:53.759Z,100612.09
2019-05-12T15:47:35.261Z,100610.05
2019-05-12T15:50:04.652Z,100611.77
2019-05-12T15:52:41.095Z,100612.38
2019-05-12T15:55:08.738Z,100618.09
2019-05-12T15:57:39.307Z,100612.98
2019-05-12T16:00:08.902Z,100612.33
2019-05-12T16:02:38.425Z,100617.84
2019-05-12T16:05:07.750Z,100628.20
2019-05-12T16:07:39.750Z,100630.41
2019-05-12T16:10:09.362Z,100626.38
2019-05-12T16:12:39.223Z,100630.31
2019-05-12T16:15:16.559Z,100630.99
2019-05-12T16:17:44.110Z,100623.67
2019-05-12T16:20:14.384Z,100624.91
2019-05-12T16:22:45.076Z,100623.30
2019-05-12T16:25:15.555Z,100626.84
2019-05-12T16:27:45.692Z,100627.53
2019-05-12T16:30:20.439Z,100625.13
2019-05-12T16:32:48.170Z,100628.78
2019-05-12T16:35:26.390Z,100632.19
2019-05-12T16:37:53.357Z,100628.81
2019-05-12T16:40:25.039Z,100626.52
2019-05-12T16:43:00.188Z,100629.34
2019-05-12T16:45:29.767Z,100633.11
2019-05-12T16:48:05.635Z,100635.58
2019-05-12T16:50:34.528Z,100637.61
2019-05-12T16:53:05.229Z,100636.39
2019-05-12T16:55:44.921Z,100638.10
2019-05-12T16:58:06.937Z,100637.88
2019-05-12T17:00:39.749Z,100634.88
2019-05-12T17:03:14.255Z,100637.45
2019-05-12T17:05:43.568Z,100637.19
2019-05-12T17:08:14.073Z,100633.11
2019-05-12T17:10:49.669Z,100635.12
2019-05-12T17:13:19.358Z,100636.00
2019-05-12T17:15:55.400Z,100634.97
2019-05-12T17:18:20.238Z,100640.16
2019-05-12T17:20:51.107Z,100644.22
2019-05-12T17:23:24.590Z,100642.52
2019-05-12T17:25:53.650Z,100638.78
2019-05-12T17:28:23.863Z,100640.39
2019-05-12T17:30:54.470Z,100648.72
2019-05-12T17:33:27.467Z,100645.25
2019-05-12T17:35:54.678Z,100652.08
2019-05-12T17:38:25.308Z,100658.89
2019-05-12T17:40:58.766Z,100663.24
2019-05-12T17:43:26.317Z,100664.29
2019-05-12T17:46:01.203Z,100662.48
2019-05-12T17:48:27.059Z,100668.61
2019-05-12T17:50:57.324Z,100660.30
2019-05-12T17:53:30.385Z,100667.63
2019-05-12T17:55:57.738Z,100672.42
2019-05-12T17:58:29.907Z,100671.41
2019-05-12T18:00:58.519Z,100675.83
2019-05-12T18:03:31.014Z,100679.48
2019-05-12T18:06:00.632Z,100679.98
2019-05-12T18:08:35.849Z,100689.84
2019-05-12T18:11:03.707Z,100693.46
2019-05-12T18:13:34.465Z,100688.17
2019-05-12T18:16:05.972Z,100692.27
2019-05-12T18:18:38.141Z,100696.70
2019-05-12T18:21:07.086Z,100698.42
2019-05-12T18:23:37.532Z,100699.13
2019-05-12T18:26:11.750Z,100713.06
2019-05-12T18:28:39.554Z,100706.32
2019-05-12T18:31:08.812Z,100701.61
2019-05-12T18:33:49.035Z,100704.94
2019-05-12T18:36:11.413Z,100711.09
2019-05-12T18:38:40.810Z,100717.97
2019-05-12T18:41:27.941Z,100721.96
2019-05-12T18:43:57.310Z,100724.32
2019-05-12T18:46:26.467Z,100726.11
2019-05-12T18:49:03.627Z,100730.80
2019-05-12T18:51:26.865Z,100727.14
2019-05-12T18:53:57.982Z,100728.28
2019-05-12T18:56:27.907Z,100727.21
2019-05-12T18:59:05.099Z,100734.69
2019-05-12T19:01:28.824Z,100743.05
2019-05-12T19:03:58.046Z,100739.92
2019-05-12T19:06:27.567Z,100746.18
2019-05-12T19:08:56.808Z,100752.80
2019-05-12T19:11:37.388Z,100764.09
2019-05-12T19:13:59.517Z,100761.69
2019-05-12T19:16:28.701Z,100766.70
2019-05-12T19:18:58.533Z,100772.87
2019-05-12T19:21:27.719Z,100778.96
2019-05-12T19:23:59.227Z,100778.96
2019-05-12T19:26:32.996Z,100782.61
2019-05-12T19:28:59.349Z,100787.14
2019-05-12T19:31:29.781Z,100791.86
2019-05-12T19:34:15.744Z,100794.59
2019-05-12T19:36:35.995Z,100795.52
2019-05-12T19:39:06.527Z,100797.27
2019-05-12T19:41:36.476Z,100800.50
2019-05-12T19:44:07.442Z,100807.91
2019-05-12T19:46:39.884Z,100808.41
2019-05-12T19:49:08.295Z,100806.77
2019-05-12T19:51:37.819Z,100813.03
2019-05-12T19:54:07.282Z,100811.09
2019-05-12T19:56:39.527Z,100821.30
2019-05-12T19:59:10.375Z,100817.08
2019-05-12T20:01:39.872Z,100824.48
2019-05-12T20:04:10.270Z,100819.78
2019-05-12T20:06:40.042Z,100824.79
2019-05-12T20:09:11.076Z,100830.69
2019-05-12T20:11:41.174Z,100826.24
2019-05-12T20:14:16.705Z,100828.11
2019-05-12T20:16:45.324Z,100829.09
2019-05-12T20:19:19.818Z,100834.77
2019-05-12T20:21:47.236Z,100836.36
2019-05-12T20:24:16.408Z,100837.56
2019-05-12T20:26:48.241Z,100849.70
2019-05-12T20:29:24.505Z,100842.28
2019-05-12T20:31:53.776Z,100841.55
2019-05-12T20:34:24.452Z,100845.14
2019-05-12T20:36:54.095Z,100847.24
2019-05-12T20:39:26.205Z,100845.14
2019-05-12T20:42:00.860Z,100848.84
2019-05-12T20:44:27.244Z,100845.80
2019-05-12T20:47:01.519Z,100849.44
2019-05-12T20:49:30.435Z,100853.93
2019-05-12T20:52:03.652Z,100850.13
2019-05-12T20:54:33.507Z,100853.04
2019-05-12T20:57:07.969Z,100855.86
2019-05-12T20:59:36.351Z,100850.97
2019-05-12T21:02:05.925Z,100857.09
2019-05-12T21:04:37.860Z,100859.54
2019-05-12T21:07:08.076Z,100856.38
2019-05-12T21:09:38.111Z,100859.39
2019-05-12T21:12:08.662Z,100866.92
2019-05-12T21:14:51.164Z,100864.98
2019-05-12T21:17:18.152Z,100866.23
2019-05-12T21:19:55.706Z,100870.03
2019-05-12T21:22:23.725Z,100871.70
2019-05-12T21:24:54.422Z,100874.47
2019-05-12T21:27:24.685Z,100869.20
2019-05-12T21:30:00.622Z,100879.78
2019-05-12T21:32:28.347Z,100888.06
2019-05-12T21:34:59.599Z,100885.69
2019-05-12T21:37:30.060Z,100881.67
2019-05-12T21:40:03.587Z,100883.81
2019-05-12T21:42:34.555Z,100890.02
2019-05-12T21:45:04.840Z,100892.92
2019-05-12T21:47:42.678Z,100890.78
2019-05-12T21:50:09.738Z,100891.88
2019-05-12T21:52:44.297Z,100896.73
2019-05-12T21:55:21.603Z,100893.08
2019-05-12T21:57:46.432Z,100907.78
2019-05-12T22:00:28.788Z,100901.41
2019-05-12T22:03:02.679Z,100904.97
2019-05-12T22:05:48.027Z,100903.09
2019-05-12T22:08:17.682Z,100902.80
2019-05-12T22:10:43.773Z,100905.27
2019-05-12T22:13:17.606Z,100908.96
2019-05-12T22:15:44.411Z,100904.66
2019-05-12T22:18:15.989Z,100913.03
2019-05-12T22:20:46.388Z,100916.09
2019-05-12T22:23:16.053Z,100916.30
2019-05-12T22:25:55.702Z,100924.87
2019-05-12T22:28:23.792Z,100919.69
2019-05-12T22:30:57.143Z,100928.48
2019-05-12T22:33:28.061Z,100922.22
2019-05-12T22:36:05.255Z,100929.30
2019-05-12T22:38:30.006Z,100932.30
2019-05-12T22:41:04.341Z,100925.89
2019-05-12T22:43:40.951Z,100936.77
2019-05-12T22:46:04.817Z,100935.81
2019-05-12T22:48:40.474Z,100936.83
2019-05-12T22:51:15.275Z,100939.83
2019-05-12T22:53:44.727Z,100943.34
2019-05-12T22:56:18.083Z,100945.64
2019-05-12T22:58:52.006Z,100944.33
2019-05-12T23:01:19.350Z,100948.67
2019-05-12T23:03:51.691Z,100945.05
2019-05-12T23:06:27.448Z,100949.54
2019-05-12T23:08:57.440Z,100949.58
2019-05-12T23:11:32.089Z,100947.07
2019-05-12T23:14:00.078Z,100956.50
2019-05-12T23:16:29.478Z,100959.92
2019-05-12T23:19:10.246Z,100956.25
2019-05-12T23:21:35.803Z,100955.84
2019-05-12T23:24:04.995Z,100959.05
2019-05-12T23:26:41.818Z,100950.98
2019-05-12T23:29:06.677Z,100959.80
2019-05-12T23:31:35.909Z,100960.88
2019-05-12T23:34:12.216Z,100960.95
2019-05-12T23:36:39.972Z,100965.27
2019-05-12T23:39:09.154Z,100963.45
2019-05-12T23:41:38.644Z,100967.03
2019-05-12T23:44:07.817Z,100965.03
2019-05-12T23:46:43.565Z,100969.89
2019-05-12T23:49:14.325Z,100972.37
2019-05-12T23:51:45.432Z,100973.55
2019-05-12T23:54:19.538Z,100977.34
2019-05-12T23:56:53.717Z,100969.63
2019-05-12T23:59:24.331Z,100970.20
